Portada
METAR-TAF:

METAR-TAF

Aeroports :

Magnitogorsk, Rússia

latitud: 53-23-36N, longitud: 058-45-24E, altitud: 436 m

Observació

L'informe es va fer fa 31 minuts, a les 21:00 UTC
Vent 14 kt del Oest/Nord-Oest
Temperatura 6°C
Humitat 56%
Pressió 1008 hPa
Visibilitat 10 km o més
Núvols disperses a una alçada de 4000 ft

METAR: USCM 052100Z 30007MPS 9999 SCT040 06/M02 Q1008 R18/090060 TEMPO 28015MPS RMK QFE719

Hora: 02:31 (21:31 UTC)

Pronòstic

L'informe es va fer fa 1 hora i 31 minuts, a les 20:00 UTC
Pronòstic vàlid del 05 a les 21 UTC al 06 a les 06 UTC
Vent 6 kt del Oest amb ràfegues de 16 kt
Visibilitat 10 km o més
Núvols disperses a una alçada de 4000 ft
Temporalment
l' 05 a les 21 UTC al 06 a les 06 UTC
Vent 16 kt del Oest/Nord-Oest amb ràfegues de 29 kt

TAF: USCM 052000Z 0521/0606 27003G08MPS 9999 SCT040 TEMPO 0521/0606 30008G15MPS

Observacions i pronòstics meteorològics de més de 4000 aeroports (METAR i TAF).

Les estacions disponibles són els punts grocs i vermells al mapa.

Posi el ratolí al punt desitjat per veure el nom de l'estació.

Feu clic per veure les observacions i els pronòstics meteorològics.

Per canviar el mapa: feu clic els botons verds amb una creu de color negre per apropar; al botó verd amb un guió per allunyar la imatge; o en les fletxes verdes per a mapes adjacents.


METAR-TAF: